createdAt,value
2019-04-04T00:00:56.888Z,8.73
2019-04-04T00:02:01.951Z,8.73
2019-04-04T00:03:05.564Z,8.79
2019-04-04T00:04:09.058Z,8.87
2019-04-04T00:05:12.545Z,8.76
2019-04-04T00:06:16.029Z,8.75
2019-04-04T00:07:19.507Z,8.69
2019-04-04T00:08:23.029Z,8.66
2019-04-04T00:09:26.457Z,8.64
2019-04-04T00:10:29.881Z,8.66
2019-04-04T00:11:33.303Z,8.67
2019-04-04T00:12:36.986Z,8.72
2019-04-04T00:13:42.538Z,8.72
2019-04-04T00:14:45.995Z,8.76
2019-04-04T00:15:49.429Z,8.78
2019-04-04T00:16:52.859Z,8.59
2019-04-04T00:17:56.407Z,8.58
2019-04-04T00:18:59.849Z,8.54
2019-04-04T00:20:04.510Z,8.46
2019-04-04T00:21:07.932Z,8.55
2019-04-04T00:22:11.384Z,8.67
2019-04-04T00:23:15.059Z,8.61
2019-04-04T00:24:18.499Z,8.53
2019-04-04T00:25:21.953Z,8.29
2019-04-04T00:26:25.443Z,8.38
2019-04-04T00:27:28.931Z,8.39
2019-04-04T00:28:32.422Z,8.45
2019-04-04T00:29:35.878Z,8.47
2019-04-04T00:30:39.381Z,8.46
2019-04-04T00:31:42.854Z,8.60
2019-04-04T00:32:46.286Z,8.66
2019-04-04T00:33:49.727Z,8.56
2019-04-04T00:34:53.237Z,8.45
2019-04-04T00:35:56.664Z,8.48
2019-04-04T00:37:00.087Z,8.42
2019-04-04T00:38:06.674Z,8.42
2019-04-04T00:39:09.900Z,8.44
2019-04-04T00:40:13.531Z,8.51
2019-04-04T00:41:16.954Z,8.51
2019-04-04T00:42:20.378Z,8.42
2019-04-04T00:43:23.796Z,8.48
2019-04-04T00:44:27.244Z,8.48
2019-04-04T00:45:30.732Z,8.45
2019-04-04T00:46:34.219Z,8.46
2019-04-04T00:47:37.775Z,8.35
2019-04-04T00:48:41.140Z,8.35
2019-04-04T00:49:44.586Z,8.37
2019-04-04T00:50:48.007Z,8.27
2019-04-04T00:51:51.506Z,8.30
2019-04-04T00:52:54.994Z,8.19
2019-04-04T00:54:00.163Z,8.23
2019-04-04T00:55:04.353Z,8.33
2019-04-04T00:56:07.787Z,8.39
2019-04-04T00:57:11.209Z,8.36
2019-04-04T00:58:14.646Z,8.13
2019-04-04T00:59:18.134Z,8.21
2019-04-04T01:00:22.039Z,8.30
2019-04-04T01:01:27.158Z,8.16
2019-04-04T01:02:30.542Z,8.16
2019-04-04T01:03:34.101Z,8.16
2019-04-04T01:04:37.548Z,8.02
2019-04-04T01:05:40.984Z,8.09
2019-04-04T01:06:44.419Z,8.12
2019-04-04T01:07:47.845Z,8.15
2019-04-04T01:08:51.268Z,8.12
2019-04-04T01:09:54.775Z,8.12
2019-04-04T01:10:58.196Z,8.26
2019-04-04T01:12:01.692Z,8.13
2019-04-04T01:13:05.253Z,8.20
2019-04-04T01:14:08.678Z,8.24
2019-04-04T01:15:12.253Z,8.24
2019-04-04T01:16:15.679Z,8.19
2019-04-04T01:17:19.100Z,8.16
2019-04-04T01:18:22.523Z,8.06
2019-04-04T01:19:25.936Z,8.06
2019-04-04T01:20:29.449Z,8.03
2019-04-04T01:21:32.936Z,7.99
2019-04-04T01:22:36.426Z,7.99
2019-04-04T01:23:39.857Z,8.03
2019-04-04T01:24:43.278Z,8.05
2019-04-04T01:25:46.788Z,7.99
2019-04-04T01:26:50.276Z,8.11
2019-04-04T01:27:54.373Z,8.24
2019-04-04T01:28:57.791Z,8.30
2019-04-04T01:30:01.297Z,8.38
2019-04-04T01:31:04.800Z,8.23
2019-04-04T01:32:08.298Z,8.07
2019-04-04T01:33:11.715Z,8.09
2019-04-04T01:34:15.141Z,7.92
2019-04-04T01:35:18.667Z,7.78
2019-04-04T01:36:23.161Z,7.71
2019-04-04T01:37:27.893Z,7.86
2019-04-04T01:38:31.331Z,8.03
2019-04-04T01:39:34.779Z,8.04
2019-04-04T01:40:38.284Z,8.06
2019-04-04T01:41:41.706Z,7.90
2019-04-04T01:42:45.125Z,7.93
2019-04-04T01:43:48.543Z,8.00
2019-04-04T01:44:52.033Z,7.98
2019-04-04T01:45:55.504Z,7.97
2019-04-04T01:46:58.897Z,7.95
2019-04-04T01:48:02.390Z,8.02
2019-04-04T01:49:05.811Z,7.92
2019-04-04T01:50:09.379Z,7.86
2019-04-04T01:51:12.815Z,7.86
2019-04-04T01:52:16.355Z,7.82
2019-04-04T01:53:19.788Z,7.78
2019-04-04T01:54:23.296Z,7.78
2019-04-04T01:55:26.718Z,7.81
2019-04-04T01:56:30.228Z,7.81
2019-04-04T01:57:33.648Z,7.82
2019-04-04T01:58:37.071Z,7.82
2019-04-04T01:59:41.970Z,7.84
2019-04-04T02:00:46.639Z,7.92
2019-04-04T02:01:50.092Z,7.86
2019-04-04T02:02:53.523Z,7.78
2019-04-04T02:03:56.951Z,7.83
2019-04-04T02:05:00.380Z,7.81
2019-04-04T02:06:03.895Z,7.77
2019-04-04T02:07:07.333Z,7.67
2019-04-04T02:08:10.752Z,7.64
2019-04-04T02:09:14.193Z,7.70
2019-04-04T02:10:17.687Z,7.83
2019-04-04T02:11:21.129Z,7.91
2019-04-04T02:12:24.573Z,8.00
2019-04-04T02:13:27.991Z,8.09
2019-04-04T02:14:31.483Z,7.95
2019-04-04T02:15:34.994Z,7.73
2019-04-04T02:16:38.409Z,7.70
2019-04-04T02:17:41.899Z,7.65
2019-04-04T02:18:45.338Z,7.73
2019-04-04T02:19:48.765Z,7.78
2019-04-04T02:20:52.183Z,7.84
2019-04-04T02:21:55.635Z,7.76
2019-04-04T02:23:01.192Z,7.77
2019-04-04T02:24:04.456Z,7.84
2019-04-04T02:25:08.000Z,7.79
2019-04-04T02:26:11.454Z,7.75
2019-04-04T02:27:14.941Z,7.75
2019-04-04T02:28:18.363Z,7.82
2019-04-04T02:29:21.856Z,7.83
2019-04-04T02:30:25.280Z,7.91
2019-04-04T02:31:30.348Z,7.90
2019-04-04T02:32:33.787Z,7.89
2019-04-04T02:33:37.208Z,7.69
2019-04-04T02:34:40.628Z,7.73
2019-04-04T02:35:44.115Z,7.73
2019-04-04T02:36:49.307Z,7.66
2019-04-04T02:37:54.938Z,7.69
2019-04-04T02:39:09.456Z,7.78
2019-04-04T02:40:13.134Z,7.50
2019-04-04T02:41:16.585Z,7.50
2019-04-04T02:42:22.110Z,7.39
2019-04-04T02:43:28.297Z,7.39
2019-04-04T02:44:32.243Z,7.44
2019-04-04T02:45:38.811Z,7.61
2019-04-04T02:46:44.070Z,7.81
2019-04-04T02:47:50.253Z,7.79
2019-04-04T02:48:55.844Z,7.80
2019-04-04T02:50:00.667Z,7.92
2019-04-04T02:51:01.738Z,7.97
2019-04-04T02:52:05.309Z,7.97
2019-04-04T02:53:08.757Z,8.00
2019-04-04T02:54:12.182Z,8.02
2019-04-04T02:55:15.602Z,8.00
2019-04-04T02:56:19.030Z,8.00
2019-04-04T02:57:22.515Z,7.95
2019-04-04T02:58:26.018Z,7.98
2019-04-04T02:59:29.501Z,7.98
2019-04-04T03:00:33.005Z,7.98
2019-04-04T03:01:36.566Z,7.98
2019-04-04T03:02:40.056Z,8.01
2019-04-04T03:03:43.648Z,7.98
2019-04-04T03:04:47.313Z,7.98
2019-04-04T03:05:52.114Z,7.99
2019-04-04T03:06:58.502Z,7.84
2019-04-04T03:08:04.165Z,7.78
2019-04-04T03:09:09.294Z,7.79
2019-04-04T03:10:15.181Z,7.74
2019-04-04T03:11:21.162Z,7.74
2019-04-04T03:12:25.740Z,7.72
2019-04-04T03:13:32.233Z,7.75
2019-04-04T03:14:37.294Z,7.74
2019-04-04T03:15:41.579Z,7.61
2019-04-04T03:16:45.482Z,7.59
2019-04-04T03:17:48.900Z,7.58
2019-04-04T03:18:52.347Z,7.58
2019-04-04T03:19:55.797Z,7.56
2019-04-04T03:20:59.217Z,7.43
2019-04-04T03:22:02.649Z,7.46
2019-04-04T03:23:06.141Z,7.58
2019-04-04T03:24:09.618Z,7.64
2019-04-04T03:25:14.910Z,7.64
2019-04-04T03:26:20.180Z,7.67
2019-04-04T03:27:26.848Z,7.74
2019-04-04T03:28:31.451Z,7.71
2019-04-04T03:29:37.283Z,7.69
2019-04-04T03:30:39.134Z,7.60
2019-04-04T03:31:42.615Z,7.41
2019-04-04T03:32:51.808Z,7.34
2019-04-04T03:33:51.393Z,7.26
2019-04-04T03:34:54.991Z,7.24
2019-04-04T03:36:00.961Z,7.15
2019-04-04T03:37:05.923Z,7.21
2019-04-04T03:38:13.021Z,7.26
2019-04-04T03:39:13.950Z,7.36
2019-04-04T03:40:17.450Z,7.37
2019-04-04T03:41:20.876Z,7.33
2019-04-04T03:42:24.305Z,7.33
2019-04-04T03:43:27.734Z,7.38
2019-04-04T03:44:31.251Z,7.36
2019-04-04T03:45:34.701Z,7.48
2019-04-04T03:46:39.018Z,7.44
2019-04-04T03:47:44.500Z,7.44
2019-04-04T03:48:50.874Z,7.48
2019-04-04T03:49:56.495Z,7.50
2019-04-04T03:51:03.624Z,7.56
2019-04-04T03:52:03.378Z,7.57
2019-04-04T03:53:06.886Z,7.62
2019-04-04T03:54:14.495Z,7.64
2019-04-04T03:55:17.939Z,7.76
2019-04-04T03:56:21.379Z,7.88
2019-04-04T03:57:24.882Z,7.98
2019-04-04T03:58:28.415Z,7.97
2019-04-04T03:59:32.393Z,7.83
2019-04-04T04:00:39.281Z,7.83
2019-04-04T04:01:45.215Z,7.81
2019-04-04T04:02:49.809Z,7.76
2019-04-04T04:03:54.737Z,7.58
2019-04-04T04:05:00.348Z,7.48
2019-04-04T04:06:02.464Z,7.48
2019-04-04T04:07:05.892Z,7.54
2019-04-04T04:08:09.340Z,7.67
2019-04-04T04:09:12.834Z,7.62
2019-04-04T04:10:16.264Z,7.74
2019-04-04T04:11:19.751Z,7.76
2019-04-04T04:12:23.190Z,7.71
2019-04-04T04:13:26.618Z,7.68
2019-04-04T04:14:30.075Z,7.58
2019-04-04T04:15:33.504Z,7.41
2019-04-04T04:16:36.951Z,7.41
2019-04-04T04:17:45.041Z,7.46
2019-04-04T04:18:45.527Z,7.26
2019-04-04T04:19:48.957Z,7.26
2019-04-04T04:20:52.399Z,7.19
2019-04-04T04:21:55.912Z,7.14
2019-04-04T04:22:59.813Z,7.26
2019-04-04T04:24:03.311Z,7.24
2019-04-04T04:25:06.969Z,7.27
2019-04-04T04:26:10.474Z,7.37
2019-04-04T04:27:15.483Z,7.43
2019-04-04T04:28:20.173Z,7.31
2019-04-04T04:29:24.297Z,7.28
2019-04-04T04:30:27.727Z,7.20
2019-04-04T04:31:31.168Z,7.25
2019-04-04T04:32:37.239Z,7.39
2019-04-04T04:33:39.830Z,7.45
2019-04-04T04:34:43.275Z,7.44
2019-04-04T04:35:46.742Z,7.40
2019-04-04T04:36:50.155Z,7.47
2019-04-04T04:37:53.945Z,7.51
2019-04-04T04:39:00.019Z,7.61
2019-04-04T04:40:02.702Z,7.52
2019-04-04T04:41:06.144Z,7.20
2019-04-04T04:42:09.591Z,7.25
2019-04-04T04:43:15.494Z,7.38
2019-04-04T04:44:18.242Z,7.38
2019-04-04T04:45:21.672Z,7.45
2019-04-04T04:46:25.273Z,7.52
2019-04-04T04:47:28.781Z,7.49
2019-04-04T04:48:32.225Z,7.38
2019-04-04T04:49:36.391Z,7.34
2019-04-04T04:50:40.559Z,7.11
2019-04-04T04:51:44.511Z,7.11
2019-04-04T04:52:47.942Z,7.05
2019-04-04T04:53:51.442Z,7.16
2019-04-04T04:54:55.567Z,7.23
2019-04-04T04:56:00.495Z,7.29
2019-04-04T04:57:05.085Z,7.25
2019-04-04T04:58:10.305Z,7.21
2019-04-04T04:59:13.943Z,7.27
2019-04-04T05:00:17.597Z,7.31
2019-04-04T05:01:21.029Z,7.42
2019-04-04T05:02:24.547Z,7.52
2019-04-04T05:03:27.977Z,7.51
2019-04-04T05:04:31.415Z,7.48
2019-04-04T05:05:34.904Z,7.20
2019-04-04T05:06:38.400Z,7.32
2019-04-04T05:07:41.892Z,7.39
2019-04-04T05:08:45.390Z,7.56
2019-04-04T05:09:48.820Z,7.56
2019-04-04T05:10:52.346Z,7.45
2019-04-04T05:11:55.756Z,7.45
2019-04-04T05:12:59.187Z,7.39
2019-04-04T05:14:02.695Z,7.33
2019-04-04T05:15:07.252Z,7.18
2019-04-04T05:16:10.692Z,7.21
2019-04-04T05:17:14.158Z,7.36
2019-04-04T05:18:17.619Z,7.17
2019-04-04T05:19:21.069Z,7.20
2019-04-04T05:20:25.626Z,7.11
2019-04-04T05:21:29.750Z,7.08
2019-04-04T05:22:33.221Z,7.01
2019-04-04T05:23:36.728Z,6.89
2019-04-04T05:24:40.190Z,7.05
2019-04-04T05:25:53.394Z,7.12
2019-04-04T05:26:48.839Z,7.22
2019-04-04T05:27:52.291Z,7.23
2019-04-04T05:28:57.115Z,7.28
2019-04-04T05:30:00.714Z,7.31
2019-04-04T05:31:04.228Z,7.29
2019-04-04T05:32:07.793Z,7.30
2019-04-04T05:33:11.257Z,7.35
2019-04-04T05:34:14.668Z,7.33
2019-04-04T05:35:18.115Z,7.36
2019-04-04T05:36:21.582Z,7.30
2019-04-04T05:37:27.390Z,7.18
2019-04-04T05:38:30.245Z,7.10
2019-04-04T05:39:33.745Z,7.12
2019-04-04T05:40:37.303Z,7.01
2019-04-04T05:41:40.730Z,7.03
2019-04-04T05:42:44.252Z,6.82
2019-04-04T05:43:47.683Z,6.95
2019-04-04T05:44:51.251Z,7.00
2019-04-04T05:45:54.770Z,6.97
2019-04-04T05:46:58.363Z,7.02
2019-04-04T05:48:01.794Z,7.20
2019-04-04T05:49:07.807Z,7.28
2019-04-04T05:50:11.463Z,7.10
2019-04-04T05:51:15.998Z,6.96
2019-04-04T05:52:19.488Z,6.95
2019-04-04T05:53:22.912Z,6.95
2019-04-04T05:54:26.352Z,6.82
2019-04-04T05:55:29.773Z,6.67
2019-04-04T05:56:33.200Z,6.65
2019-04-04T05:57:36.665Z,6.69
2019-04-04T05:58:40.080Z,6.69
2019-04-04T05:59:43.635Z,6.70
2019-04-04T06:00:47.486Z,6.77
2019-04-04T06:01:50.866Z,7.09
2019-04-04T06:02:54.306Z,7.13
2019-04-04T06:03:57.827Z,7.05
2019-04-04T06:05:01.640Z,6.92
2019-04-04T06:06:05.187Z,6.96
2019-04-04T06:07:08.782Z,7.08
2019-04-04T06:08:12.258Z,7.16
2019-04-04T06:09:15.738Z,7.08
2019-04-04T06:10:19.274Z,7.00
2019-04-04T06:11:22.706Z,7.13
2019-04-04T06:12:26.138Z,7.15
2019-04-04T06:13:29.573Z,7.05
2019-04-04T06:14:33.052Z,7.08
2019-04-04T06:15:36.508Z,6.92
2019-04-04T06:16:39.935Z,7.02
2019-04-04T06:17:43.437Z,7.17
2019-04-04T06:18:49.178Z,7.21
2019-04-04T06:19:52.036Z,7.26
2019-04-04T06:20:55.609Z,7.24
2019-04-04T06:21:59.050Z,7.13
2019-04-04T06:23:02.495Z,7.25
2019-04-04T06:24:05.926Z,7.28
2019-04-04T06:25:09.619Z,7.13
2019-04-04T06:26:13.125Z,7.23
2019-04-04T06:27:16.558Z,7.26
2019-04-04T06:28:19.994Z,7.16
2019-04-04T06:29:23.411Z,7.15
2019-04-04T06:30:26.929Z,7.17
2019-04-04T06:31:30.905Z,7.13
2019-04-04T06:32:34.475Z,7.02
2019-04-04T06:33:37.907Z,6.99
2019-04-04T06:34:42.204Z,6.99
2019-04-04T06:35:47.906Z,6.95
2019-04-04T06:36:51.422Z,7.00
2019-04-04T06:37:54.857Z,7.04
2019-04-04T06:38:58.281Z,7.02
2019-04-04T06:40:01.719Z,7.07
2019-04-04T06:41:05.343Z,7.11
2019-04-04T06:42:11.223Z,7.16
2019-04-04T06:43:13.946Z,7.14
2019-04-04T06:44:17.430Z,7.15
2019-04-04T06:45:20.857Z,7.23
2019-04-04T06:46:24.318Z,7.20
2019-04-04T06:47:27.749Z,7.27
2019-04-04T06:48:33.837Z,7.38
2019-04-04T06:49:36.348Z,7.29
2019-04-04T06:50:42.847Z,7.27
2019-04-04T06:51:46.594Z,7.36
2019-04-04T06:52:50.504Z,7.39
2019-04-04T06:53:54.612Z,7.25
2019-04-04T06:54:58.071Z,7.19
2019-04-04T06:56:01.536Z,7.24
2019-04-04T06:57:05.047Z,7.16
2019-04-04T06:58:09.478Z,7.25
2019-04-04T06:59:13.163Z,7.28
2019-04-04T07:00:16.939Z,7.29
2019-04-04T07:01:21.924Z,7.27
2019-04-04T07:02:25.647Z,7.28
2019-04-04T07:03:29.102Z,7.36
2019-04-04T07:04:35.804Z,7.45
2019-04-04T07:05:38.919Z,7.51
2019-04-04T07:06:42.476Z,7.50
2019-04-04T07:07:45.962Z,7.63
2019-04-04T07:08:49.395Z,7.62
2019-04-04T07:09:52.885Z,7.65
2019-04-04T07:10:58.098Z,7.70
2019-04-04T07:12:01.496Z,7.64
2019-04-04T07:13:20.639Z,7.61
2019-04-04T07:14:10.193Z,7.68
2019-04-04T07:15:15.977Z,7.67
2019-04-04T07:16:19.606Z,7.68
2019-04-04T07:17:23.066Z,7.78
2019-04-04T07:18:26.508Z,7.77
2019-04-04T07:19:29.997Z,7.79
2019-04-04T07:20:33.491Z,7.82
2019-04-04T07:21:36.942Z,7.82
2019-04-04T07:22:43.496Z,7.79
2019-04-04T07:23:47.046Z,7.80
2019-04-04T07:24:50.479Z,7.97
2019-04-04T07:25:54.058Z,8.10
2019-04-04T07:26:57.530Z,8.19
2019-04-04T07:28:01.037Z,8.17
2019-04-04T07:29:04.715Z,8.22
2019-04-04T07:30:08.748Z,8.28
2019-04-04T07:31:12.293Z,8.33
2019-04-04T07:32:15.740Z,8.41
2019-04-04T07:33:21.396Z,8.36
2019-04-04T07:34:24.423Z,8.36
2019-04-04T07:35:27.858Z,8.39
2019-04-04T07:36:31.316Z,8.30
2019-04-04T07:37:34.899Z,8.25
2019-04-04T07:38:38.339Z,8.32
2019-04-04T07:39:41.776Z,8.47
2019-04-04T07:40:45.265Z,8.54
2019-04-04T07:41:48.794Z,8.54
2019-04-04T07:42:52.224Z,8.55
2019-04-04T07:43:58.507Z,8.56
2019-04-04T07:45:00.903Z,8.56
2019-04-04T07:46:15.635Z,8.63
2019-04-04T07:47:09.640Z,8.75
2019-04-04T07:48:13.083Z,8.75
2019-04-04T07:49:16.541Z,8.86
2019-04-04T07:50:19.976Z,8.81
2019-04-04T07:51:23.416Z,8.84
2019-04-04T07:52:26.933Z,8.84
2019-04-04T07:53:30.366Z,8.86
2019-04-04T07:54:33.793Z,8.90
2019-04-04T07:55:37.221Z,9.00
2019-04-04T07:56:40.817Z,9.00
2019-04-04T07:57:44.257Z,9.01
2019-04-04T07:58:47.706Z,8.98
2019-04-04T07:59:51.140Z,9.07
2019-04-04T08:00:54.576Z,9.07
2019-04-04T08:01:58.091Z,9.17
2019-04-04T08:03:01.543Z,9.17
2019-04-04T08:04:06.608Z,9.24
2019-04-04T08:05:12.993Z,9.28
2019-04-04T08:06:15.727Z,9.30
2019-04-04T08:07:19.180Z,9.40
2019-04-04T08:08:22.703Z,9.45
2019-04-04T08:09:26.444Z,9.48
2019-04-04T08:10:29.927Z,9.50
2019-04-04T08:11:33.438Z,9.50
2019-04-04T08:12:36.964Z,9.55
2019-04-04T08:13:40.561Z,9.61
2019-04-04T08:14:43.985Z,9.61
2019-04-04T08:15:47.485Z,9.70
2019-04-04T08:16:50.993Z,9.69
2019-04-04T08:17:54.435Z,9.73
2019-04-04T08:18:58.229Z,9.74
2019-04-04T08:20:01.682Z,9.78
2019-04-04T08:21:05.834Z,9.81
2019-04-04T08:22:09.552Z,9.89
2019-04-04T08:23:13.095Z,9.88
2019-04-04T08:24:16.527Z,9.91
2019-04-04T08:25:19.955Z,9.96
2019-04-04T08:26:23.386Z,9.99
2019-04-04T08:27:26.825Z,10.04
2019-04-04T08:28:30.286Z,10.11
2019-04-04T08:29:33.715Z,10.17
2019-04-04T08:30:37.218Z,10.24
2019-04-04T08:31:40.719Z,10.25
2019-04-04T08:32:44.219Z,10.28
2019-04-04T08:33:47.723Z,10.32
2019-04-04T08:34:51.135Z,10.41
2019-04-04T08:36:05.341Z,10.51
2019-04-04T08:36:59.866Z,10.56
2019-04-04T08:38:03.297Z,10.59
2019-04-04T08:39:08.932Z,10.65
2019-04-04T08:40:12.435Z,10.66
2019-04-04T08:41:15.946Z,10.77
2019-04-04T08:42:19.368Z,10.81
2019-04-04T08:43:22.874Z,10.83
2019-04-04T08:44:26.428Z,10.84
2019-04-04T08:45:30.007Z,10.81
2019-04-04T08:46:33.513Z,10.88
2019-04-04T08:47:37.039Z,10.92
2019-04-04T08:48:40.559Z,11.02
2019-04-04T08:49:44.070Z,11.06
2019-04-04T08:50:47.648Z,11.10
2019-04-04T08:51:51.084Z,11.17
2019-04-04T08:52:54.524Z,11.20
2019-04-04T08:53:58.003Z,11.18
2019-04-04T08:55:01.441Z,11.16
2019-04-04T08:56:05.011Z,11.18
2019-04-04T08:57:08.443Z,11.17
2019-04-04T08:58:11.880Z,11.21
2019-04-04T08:59:15.343Z,11.25
2019-04-04T09:00:18.932Z,11.33
2019-04-04T09:01:22.440Z,11.40
2019-04-04T09:02:25.881Z,11.45
2019-04-04T09:03:29.309Z,11.47
2019-04-04T09:04:32.847Z,11.43
2019-04-04T09:05:36.367Z,11.43
2019-04-04T09:06:39.808Z,11.45
2019-04-04T09:07:43.410Z,11.50
2019-04-04T09:08:46.877Z,11.56
2019-04-04T09:09:50.399Z,11.57
2019-04-04T09:10:53.942Z,11.51
2019-04-04T09:11:57.522Z,11.58
2019-04-04T09:13:01.053Z,11.61
2019-04-04T09:14:04.623Z,11.58
2019-04-04T09:15:08.550Z,11.58
2019-04-04T09:16:12.123Z,11.53
2019-04-04T09:17:15.654Z,11.56
2019-04-04T09:18:19.054Z,11.61
2019-04-04T09:19:22.500Z,11.67
2019-04-04T09:20:26.056Z,11.57
2019-04-04T09:21:29.466Z,11.53
2019-04-04T09:22:32.964Z,11.40
2019-04-04T09:23:36.397Z,11.33
2019-04-04T09:24:39.848Z,11.31
2019-04-04T09:25:43.761Z,11.39
2019-04-04T09:26:47.264Z,11.41
2019-04-04T09:27:50.712Z,11.33
2019-04-04T09:28:54.289Z,11.37
2019-04-04T09:29:57.685Z,11.40
2019-04-04T09:31:01.120Z,11.39
2019-04-04T09:32:04.689Z,11.39
2019-04-04T09:33:08.230Z,11.28
2019-04-04T09:34:11.731Z,11.20
2019-04-04T09:35:15.258Z,11.17
2019-04-04T09:36:18.830Z,11.03
2019-04-04T09:37:22.267Z,10.93
2019-04-04T09:38:25.775Z,11.02
2019-04-04T09:39:29.212Z,10.94
2019-04-04T09:40:32.707Z,11.04
2019-04-04T09:41:36.202Z,11.17
2019-04-04T09:42:39.707Z,11.19
2019-04-04T09:43:43.154Z,11.22
2019-04-04T09:44:46.618Z,11.19
2019-04-04T09:45:50.139Z,11.21
2019-04-04T09:47:04.919Z,11.23
2019-04-04T09:47:58.716Z,11.25
2019-04-04T09:49:02.157Z,11.33
2019-04-04T09:50:06.744Z,11.33
2019-04-04T09:51:10.222Z,11.21
2019-04-04T09:52:13.727Z,11.11
2019-04-04T09:53:17.159Z,11.19
2019-04-04T09:54:20.959Z,11.31
2019-04-04T09:55:24.366Z,11.25
2019-04-04T09:56:27.802Z,11.28
2019-04-04T09:57:31.233Z,11.36
2019-04-04T09:58:34.673Z,11.41
2019-04-04T09:59:38.130Z,11.43
2019-04-04T10:00:41.837Z,11.54
2019-04-04T10:01:45.258Z,11.61
2019-04-04T10:02:49.741Z,11.65
2019-04-04T10:03:53.664Z,11.53
2019-04-04T10:04:57.211Z,11.58
2019-04-04T10:06:00.664Z,11.60
2019-04-04T10:07:04.243Z,11.61
2019-04-04T10:08:07.845Z,11.66
2019-04-04T10:09:15.865Z,11.68
2019-04-04T10:10:17.249Z,11.69
2019-04-04T10:11:20.701Z,11.75
2019-04-04T10:12:24.232Z,11.71
2019-04-04T10:13:27.737Z,11.59
2019-04-04T10:14:31.174Z,11.59
2019-04-04T10:15:34.609Z,11.61
2019-04-04T10:16:38.143Z,11.49
2019-04-04T10:17:41.660Z,11.53
2019-04-04T10:18:45.168Z,11.35
2019-04-04T10:19:48.674Z,11.39
2019-04-04T10:20:52.250Z,11.46
2019-04-04T10:21:55.719Z,11.48
2019-04-04T10:22:59.148Z,11.44
2019-04-04T10:24:02.650Z,11.47
2019-04-04T10:25:06.423Z,11.59
2019-04-04T10:26:09.930Z,11.65
2019-04-04T10:27:13.365Z,11.75
2019-04-04T10:28:16.868Z,11.70
2019-04-04T10:29:20.375Z,11.56
2019-04-04T10:30:23.893Z,11.55
2019-04-04T10:31:27.422Z,11.66
2019-04-04T10:32:30.865Z,11.72
2019-04-04T10:33:34.347Z,11.72
2019-04-04T10:34:37.788Z,11.84
2019-04-04T10:35:41.236Z,11.93
2019-04-04T10:36:44.781Z,11.87
2019-04-04T10:37:48.216Z,11.71
2019-04-04T10:38:51.655Z,11.70
2019-04-04T10:39:55.101Z,11.64
2019-04-04T10:40:58.610Z,11.59
2019-04-04T10:42:02.138Z,11.67
2019-04-04T10:43:05.638Z,11.72
2019-04-04T10:44:09.083Z,11.66
2019-04-04T10:45:13.572Z,11.72
2019-04-04T10:46:17.075Z,11.72
2019-04-04T10:47:20.598Z,11.83
2019-04-04T10:48:24.118Z,11.89
2019-04-04T10:49:27.646Z,11.83
2019-04-04T10:50:31.092Z,11.77
2019-04-04T10:51:34.539Z,11.70
2019-04-04T10:52:38.120Z,11.57
2019-04-04T10:53:41.568Z,11.60
2019-04-04T10:54:45.079Z,11.55
2019-04-04T10:55:48.677Z,11.61
2019-04-04T10:56:52.121Z,11.75
2019-04-04T10:57:55.678Z,11.87
2019-04-04T10:58:59.244Z,12.02
2019-04-04T11:00:03.354Z,12.00
2019-04-04T11:01:06.987Z,11.93
2019-04-04T11:02:10.417Z,11.91
2019-04-04T11:03:13.867Z,11.91
2019-04-04T11:04:17.324Z,11.99
2019-04-04T11:05:20.738Z,11.97
2019-04-04T11:06:24.185Z,11.90
2019-04-04T11:07:27.615Z,11.71
2019-04-04T11:08:31.080Z,11.60
2019-04-04T11:09:41.762Z,11.60
2019-04-04T11:10:39.709Z,11.56
2019-04-04T11:11:43.159Z,11.62
2019-04-04T11:12:46.592Z,11.50
2019-04-04T11:13:50.119Z,11.56
2019-04-04T11:14:53.561Z,11.65
2019-04-04T11:15:57.007Z,11.63
2019-04-04T11:17:00.446Z,11.87
2019-04-04T11:18:03.965Z,12.02
2019-04-04T11:19:09.706Z,12.10
2019-04-04T11:20:12.805Z,12.20
2019-04-04T11:21:16.245Z,12.21
2019-04-04T11:22:19.681Z,12.21
2019-04-04T11:23:23.215Z,12.26
2019-04-04T11:24:26.664Z,12.30
2019-04-04T11:25:30.118Z,12.36
2019-04-04T11:26:33.616Z,12.36
2019-04-04T11:27:37.065Z,12.50
2019-04-04T11:28:40.531Z,12.69
2019-04-04T11:29:43.981Z,12.57
2019-04-04T11:30:47.423Z,12.54
2019-04-04T11:31:50.898Z,12.65
2019-04-04T11:32:54.341Z,12.70
2019-04-04T11:33:57.796Z,12.66
2019-04-04T11:35:01.235Z,12.69
2019-04-04T11:36:04.810Z,12.87
2019-04-04T11:37:08.266Z,12.90
2019-04-04T11:38:11.769Z,12.91
2019-04-04T11:39:15.219Z,13.03
2019-04-04T11:40:18.675Z,13.24
2019-04-04T11:41:22.120Z,13.32
2019-04-04T11:42:25.624Z,13.23
2019-04-04T11:43:29.062Z,13.35
2019-04-04T11:44:32.529Z,13.49
2019-04-04T11:45:36.052Z,13.72
2019-04-04T11:46:39.565Z,13.87
2019-04-04T11:47:42.997Z,13.83
2019-04-04T11:48:46.433Z,13.77
2019-04-04T11:49:49.968Z,13.54
2019-04-04T11:50:53.417Z,13.39
2019-04-04T11:51:56.921Z,13.56
2019-04-04T11:53:00.358Z,13.73
2019-04-04T11:54:03.871Z,13.97
2019-04-04T11:55:07.565Z,14.04
2019-04-04T11:56:11.072Z,14.15
2019-04-04T11:57:14.499Z,14.33
2019-04-04T11:58:17.941Z,14.64
2019-04-04T11:59:21.382Z,14.72
2019-04-04T12:00:31.890Z,14.71
2019-04-04T12:01:37.033Z,14.58
2019-04-04T12:02:40.545Z,14.54
2019-04-04T12:03:44.061Z,14.37
2019-04-04T12:04:47.495Z,14.68
2019-04-04T12:05:50.955Z,15.00
2019-04-04T12:06:54.389Z,15.25
2019-04-04T12:07:57.829Z,15.40
2019-04-04T12:09:01.268Z,15.45
2019-04-04T12:10:07.961Z,15.23
2019-04-04T12:11:11.575Z,15.46
2019-04-04T12:12:15.014Z,15.70
2019-04-04T12:13:18.451Z,15.85
2019-04-04T12:14:21.875Z,15.86
2019-04-04T12:15:25.400Z,16.06
2019-04-04T12:16:28.925Z,16.18
2019-04-04T12:17:32.376Z,16.37
2019-04-04T12:18:35.816Z,16.32
2019-04-04T12:19:39.250Z,16.31
2019-04-04T12:20:43.463Z,16.52
2019-04-04T12:21:47.141Z,16.89
2019-04-04T12:22:50.634Z,16.64
2019-04-04T12:23:54.079Z,16.30
2019-04-04T12:24:57.514Z,16.38
2019-04-04T12:26:00.965Z,16.69
2019-04-04T12:27:04.472Z,16.30
2019-04-04T12:28:07.979Z,16.36
2019-04-04T12:29:11.415Z,16.48
2019-04-04T12:30:15.293Z,16.84
2019-04-04T12:31:18.831Z,17.37
2019-04-04T12:32:22.640Z,17.61
2019-04-04T12:33:26.178Z,17.62
2019-04-04T12:34:29.779Z,17.67
2019-04-04T12:35:33.214Z,17.35
2019-04-04T12:36:36.716Z,17.22
2019-04-04T12:37:40.308Z,16.95
2019-04-04T12:38:43.746Z,17.68
2019-04-04T12:39:47.301Z,18.08
2019-04-04T12:40:50.744Z,18.18
2019-04-04T12:41:54.287Z,18.86
2019-04-04T12:42:57.729Z,18.88
2019-04-04T12:44:01.171Z,18.59
2019-04-04T12:45:06.939Z,18.54
2019-04-04T12:46:10.451Z,18.25
2019-04-04T12:47:14.040Z,18.94
2019-04-04T12:48:17.492Z,19.37
2019-04-04T12:49:21.050Z,19.66
2019-04-04T12:50:24.538Z,19.36
2019-04-04T12:51:28.090Z,18.68
2019-04-04T12:52:31.591Z,19.03
2019-04-04T12:53:35.027Z,18.93
2019-04-04T12:54:38.538Z,18.88
2019-04-04T12:55:42.047Z,19.17
2019-04-04T12:56:45.506Z,19.33
2019-04-04T12:57:49.098Z,19.45
2019-04-04T12:58:52.566Z,18.74
2019-04-04T12:59:56.107Z,19.24
2019-04-04T13:00:59.560Z,19.41
2019-04-04T13:02:03.102Z,19.51
2019-04-04T13:03:06.668Z,19.69
2019-04-04T13:04:10.257Z,19.22
2019-04-04T13:05:21.215Z,18.91
2019-04-04T13:06:25.117Z,18.99
2019-04-04T13:07:28.690Z,19.22
2019-04-04T13:08:32.201Z,19.39
2019-04-04T13:09:35.635Z,19.16
2019-04-04T13:10:39.114Z,19.25
2019-04-04T13:11:42.735Z,19.30
2019-04-04T13:12:46.249Z,19.54
2019-04-04T13:13:49.908Z,19.55
2019-04-04T13:14:53.416Z,19.66
2019-04-04T13:15:56.948Z,19.83
2019-04-04T13:17:00.368Z,19.11
2019-04-04T13:18:03.878Z,18.41
2019-04-04T13:19:07.399Z,18.38
2019-04-04T13:20:12.515Z,17.62
2019-04-04T13:21:16.055Z,17.38
2019-04-04T13:22:19.631Z,17.44
2019-04-04T13:23:23.093Z,17.58
2019-04-04T13:24:26.546Z,17.19
2019-04-04T13:25:29.980Z,17.33
2019-04-04T13:26:33.479Z,17.50
2019-04-04T13:27:37.075Z,17.55
2019-04-04T13:28:40.507Z,17.50
2019-04-04T13:29:44.101Z,17.72
2019-04-04T13:30:47.543Z,17.75
2019-04-04T13:31:51.048Z,17.49
2019-04-04T13:32:54.492Z,17.23
2019-04-04T13:33:57.951Z,16.91
2019-04-04T13:35:04.922Z,16.95
2019-04-04T13:36:06.649Z,17.54
2019-04-04T13:37:10.146Z,17.47
2019-04-04T13:38:13.578Z,16.79
2019-04-04T13:39:17.105Z,16.28
2019-04-04T13:40:20.588Z,17.05
2019-04-04T13:41:24.101Z,17.03
2019-04-04T13:42:27.559Z,17.10
2019-04-04T13:43:31.061Z,17.79
2019-04-04T13:44:34.701Z,17.40
2019-04-04T13:45:38.205Z,17.13
2019-04-04T13:46:41.652Z,16.99
2019-04-04T13:47:45.152Z,16.90
2019-04-04T13:48:48.588Z,17.08
2019-04-04T13:49:52.038Z,16.87
2019-04-04T13:50:55.548Z,16.44
2019-04-04T13:51:59.050Z,15.90
2019-04-04T13:53:02.563Z,15.44
2019-04-04T13:54:06.130Z,15.18
2019-04-04T13:55:09.797Z,15.61
2019-04-04T13:56:13.228Z,16.10
2019-04-04T13:57:16.743Z,15.74
2019-04-04T13:58:22.158Z,15.38